Time;durP1;ratioP1;P1;durP2;ratioP2;P2;SDS_P1;SDS_P2;PMS_P1;PMS_P2;Temp;Humidity;BMP_temperature;BMP_pressure;BME280_temperature;BME280_humidity;BME280_pressure;Samples;Min_cycle;Max_cycle;Signal;HPM_P1;HPM_P2
2021/11/01 00:00:28;;;;;;;13.23;4.15;;;;;;;9.03;100.00;99645.38;10539269;28;20052;-74
2021/11/01 00:05:30;;;;;;;12.02;3.70;;;;;;;8.93;100.00;99648.78;10567958;28;20112;-74
2021/11/01 00:10:33;;;;;;;19.92;4.18;;;;;;;8.93;100.00;99656.53;10580032;28;20070;-73
2021/11/01 00:15:35;;;;;;;11.90;4.38;;;;;;;8.88;100.00;99643.63;10579622;28;20055;-73
2021/11/01 00:20:37;;;;;;;19.20;4.45;;;;;;;8.82;100.00;99643.59;10580184;28;20135;-73
2021/11/01 00:25:39;;;;;;;12.80;4.60;;;;;;;8.79;100.00;99633.28;10564997;28;20040;-73
2021/11/01 00:30:40;;;;;;;10.23;3.75;;;;;;;8.81;100.00;99646.19;10548620;28;20052;-73
2021/11/01 00:35:42;;;;;;;18.55;4.15;;;;;;;8.80;100.00;99640.19;10551246;28;20083;-73
2021/11/01 00:40:43;;;;;;;12.18;4.32;;;;;;;8.83;100.00;99645.31;10537536;28;20492;-74
2021/11/01 00:45:45;;;;;;;13.38;4.45;;;;;;;8.76;100.00;99649.63;10535916;28;20101;-73
2021/11/01 00:50:47;;;;;;;12.23;4.43;;;;;;;8.64;100.00;99641.00;10535846;28;20093;-73
2021/11/01 00:55:52;;;;;;;11.85;4.10;;;;;;;8.58;100.00;99636.69;10535543;28;20052;-73
2021/11/01 01:00:55;;;;;;;14.07;4.55;;;;;;;8.60;100.00;99634.94;10537025;28;20047;-72
2021/11/01 01:05:58;;;;;;;16.50;5.65;;;;;;;8.59;100.00;99643.56;10568490;28;20112;-73
2021/11/01 01:11:01;;;;;;;16.23;4.97;;;;;;;8.62;100.00;99633.25;10579170;28;20058;-73
2021/11/01 01:16:27;;;;;;;9.55;3.75;;;;;;;8.56;100.00;99630.63;10578547;28;20043;-74
2021/11/01 01:26:48;;;;;;;16.00;3.95;;;;;;;8.37;100.00;99626.28;10553683;28;20052;-73
2021/11/01 01:31:50;;;;;;;10.38;3.83;;;;;;;8.38;100.00;99609.97;10546342;28;20466;-73
2021/11/01 01:36:52;;;;;;;10.90;3.88;;;;;;;8.33;100.00;99609.06;10547872;28;20127;-72
2021/11/01 01:41:53;;;;;;;12.10;3.30;;;;;;;8.23;100.00;99606.47;10534686;28;20058;-73
2021/11/01 01:46:56;;;;;;;10.80;4.03;;;;;;;8.28;100.00;99605.59;10535574;28;20075;-73
2021/11/01 01:51:57;;;;;;;23.25;4.78;;;;;;;8.19;100.00;99602.13;10535315;28;20044;-73
2021/11/01 01:56:59;;;;;;;17.30;4.97;;;;;;;8.23;100.00;99591.00;10535504;28;20534;-72
2021/11/01 02:02:01;;;;;;;15.32;5.10;;;;;;;8.16;100.00;99594.38;10534352;28;20055;-73
2021/11/01 02:07:24;;;;;;;14.45;4.78;;;;;;;8.19;100.00;99586.69;10575904;28;20048;-73
2021/11/01 02:12:34;;;;;;;9.30;3.72;;;;;;;8.22;100.00;99585.81;10577632;28;20066;-73
2021/11/01 02:17:36;;;;;;;9.70;3.08;;;;;;;8.23;100.00;99575.53;10577421;28;20403;-73
2021/11/01 02:23:02;;;;;;;14.02;3.95;;;;;;;8.24;100.00;99572.09;10576946;28;20059;-73
2021/11/01 02:28:05;;;;;;;16.15;4.30;;;;;;;8.04;100.00;99563.44;10552476;28;20048;-72
2021/11/01 02:33:08;;;;;;;12.50;4.10;;;;;;;8.10;100.00;99570.31;10535014;28;20044;-73
2021/11/01 02:38:15;;;;;;;11.98;3.80;;;;;;;8.23;100.00;99554.94;10535130;28;20094;-73
2021/11/01 02:43:17;;;;;;;14.63;3.03;;;;;;;8.17;100.00;99561.78;10533413;28;20048;-73
2021/11/01 02:48:18;;;;;;;8.45;3.45;;;;;;;8.12;100.00;99560.91;10540116;28;20056;-73
2021/11/01 02:53:20;;;;;;;15.80;4.00;;;;;;;8.11;100.00;99548.84;10542039;28;20052;-73
2021/11/01 02:58:21;;;;;;;14.30;4.45;;;;;;;8.13;100.00;99553.16;10541459;28;20051;-73
2021/11/01 03:03:23;;;;;;;14.63;3.42;;;;;;;8.09;100.00;99559.16;10552523;28;20063;-73
2021/11/01 03:08:24;;;;;;;8.95;2.90;;;;;;;8.18;100.00;99556.63;10582990;28;20055;-74
2021/11/01 03:13:28;;;;;;;13.10;3.75;;;;;;;8.10;100.00;99562.59;10580725;28;20048;-73
2021/11/01 03:18:38;;;;;;;14.45;3.72;;;;;;;8.00;100.00;99563.41;10579647;28;20529;-73
2021/11/01 03:23:46;;;;;;;11.18;3.92;;;;;;;8.02;100.00;99572.00;10579858;28;20058;-73
2021/11/01 03:28:51;;;;;;;16.23;4.15;;;;;;;7.95;100.00;99578.84;10549123;28;20048;-73
2021/11/01 03:33:54;;;;;;;15.07;2.63;;;;;;;8.02;100.00;99580.59;10537503;28;20079;-73
2021/11/01 03:38:57;;;;;;;9.88;2.75;;;;;;;8.02;100.00;99590.91;10537902;28;20056;-73
2021/11/01 03:44:06;;;;;;;12.77;3.33;;;;;;;8.00;100.00;99577.16;10539972;28;20051;-74
2021/11/01 03:49:09;;;;;;;16.40;3.70;;;;;;;7.97;100.00;99584.88;10539126;28;20147;-72
2021/11/01 03:54:13;;;;;;;17.00;3.42;;;;;;;8.07;100.00;99578.06;10537593;28;20060;-73
2021/11/01 03:59:15;;;;;;;9.57;3.05;;;;;;;8.01;100.00;99563.44;10537413;28;20113;-72
2021/11/01 04:04:17;;;;;;;12.32;3.67;;;;;;;8.10;100.00;99573.75;10558589;28;20457;-73
2021/11/01 04:09:19;;;;;;;14.73;4.40;;;;;;;8.06;100.00;99574.63;10579827;28;20058;-74
2021/11/01 04:14:24;;;;;;;15.20;5.15;;;;;;;8.06;100.00;99578.91;10579896;28;20059;-73
2021/11/01 04:24:30;;;;;;;14.45;3.78;;;;;;;8.22;100.00;99570.34;10575239;28;20101;-74
2021/11/01 04:29:33;;;;;;;8.43;3.53;;;;;;;8.36;100.00;99568.75;10539155;28;20527;-74
2021/11/01 04:34:38;;;;;;;10.38;3.30;;;;;;;8.30;100.00;99576.41;10537418;28;20044;-74
2021/11/01 04:39:59;;;;;;;11.20;3.47;;;;;;;8.28;100.00;99570.38;10579610;28;20054;-74
2021/11/01 04:55:29;;;;;;;15.50;3.38;;;;;;;8.17;100.00;99570.38;10579126;28;20051;-75
2021/11/01 05:00:31;;;;;;;8.95;3.25;;;;;;;8.17;100.00;99570.38;10546544;28;20052;-73
2021/11/01 05:05:33;;;;;;;10.13;3.33;;;;;;;8.14;100.00;99548.88;10550853;28;20143;-73
2021/11/01 05:10:39;;;;;;;13.27;3.08;;;;;;;8.12;100.00;99555.75;10538662;28;20470;-74
2021/11/01 05:15:50;;;;;;;5.55;3.08;;;;;;;8.15;100.00;99558.31;10537992;28;20044;-73
2021/11/01 05:21:07;;;;;;;6.78;2.75;;;;;;;8.12;100.00;99554.03;10534867;28;20134;-74
2021/11/01 05:26:16;;;;;;;11.35;2.80;;;;;;;8.13;100.00;99542.88;10542282;28;20052;-76
2021/11/01 05:31:24;;;;;;;5.28;2.75;;;;;;;8.07;100.00;99557.44;10577112;28;20055;-73
2021/11/01 05:36:25;;;;;;;11.23;2.90;;;;;;;8.09;100.00;99559.16;10577525;28;20471;-73
2021/11/01 05:41:27;;;;;;;16.08;3.45;;;;;;;8.08;100.00;99564.31;10578559;28;20069;-74
2021/11/01 05:46:36;;;;;;;4.60;2.25;;;;;;;8.04;100.00;99563.44;10576072;28;20320;-74
2021/11/01 05:51:38;;;;;;;6.50;2.85;;;;;;;8.13;100.00;99562.63;10546230;28;20112;-73
2021/11/01 05:56:48;;;;;;;7.68;2.95;;;;;;;8.23;100.00;99577.25;10556887;28;20053;-73
2021/11/01 06:07:31;;;;;;;9.57;2.50;;;;;;;8.14;100.00;99584.94;10564326;28;20464;-73
2021/11/01 06:17:55;;;;;;;9.50;2.75;;;;;;;8.26;100.00;99590.13;10567245;28;20121;-74
2021/11/01 06:22:57;;;;;;;16.35;2.85;;;;;;;8.38;100.00;99597.06;10541232;28;20056;-75
2021/11/01 06:27:58;;;;;;;7.93;2.58;;;;;;;8.41;100.00;99610.84;10557637;28;20044;-74
2021/11/01 06:44:22;;;;;;;12.35;2.95;;;;;;;8.54;100.00;99621.19;10541128;28;20056;-73
2021/11/01 07:21:45;;;;;;;8.20;3.08;;;;;;;8.42;100.00;99658.09;10540612;28;20048;-75
2021/11/01 08:42:36;;;;;;;6.82;2.30;;;;;;;9.31;100.00;99686.69;10565744;28;20048;-74
2021/11/01 09:08:10;;;;;;;11.50;3.65;;;;;;;9.52;100.00;99677.22;10561641;28;20379;-76
2021/11/01 09:13:53;;;;;;;10.30;2.75;;;;;;;9.65;100.00;99683.28;10558904;28;20267;-74
2021/11/01 09:18:56;;;;;;;7.72;3.30;;;;;;;9.58;100.00;99676.38;10556663;28;20492;-75
2021/11/01 09:24:18;;;;;;;7.75;3.13;;;;;;;9.65;100.00;99682.41;10533999;28;20051;-75
2021/11/01 09:29:45;;;;;;;11.63;3.10;;;;;;;9.63;100.00;99679.81;10555231;28;20482;-74
2021/11/01 09:45:32;;;;;;;7.25;2.97;;;;;;;10.04;98.24;99687.53;10556331;28;20130;-74
2021/11/01 09:50:35;;;;;;;11.95;2.80;;;;;;;10.17;95.20;99690.94;10559773;28;20080;-75
2021/11/01 10:00:41;;;;;;;6.68;2.67;;;;;;;10.14;94.92;99698.69;10580606;28;20047;-77
2021/11/01 10:05:56;;;;;;;11.98;2.63;;;;;;;10.30;91.56;99682.31;10553942;28;20144;-74
2021/11/01 10:10:58;;;;;;;7.55;2.90;;;;;;;10.44;91.91;99689.19;10557617;28;20491;-76
2021/11/01 10:21:21;;;;;;;10.05;2.70;;;;;;;10.58;91.52;99697.72;10554972;28;20527;-76
2021/11/01 10:26:29;;;;;;;9.25;2.78;;;;;;;10.83;88.96;99693.28;10562500;28;20537;-75
2021/11/01 10:31:43;;;;;;;6.10;1.85;;;;;;;10.33;90.36;99707.31;10551952;28;20500;-75
2021/11/01 10:36:46;;;;;;;3.22;1.80;;;;;;;10.26;91.77;99692.66;10541671;28;20052;-78
2021/11/01 10:42:24;;;;;;;5.78;2.28;;;;;;;10.41;90.29;99686.59;10542801;28;20067;-75
2021/11/01 10:58:42;;;;;;;6.65;1.77;;;;;;;11.31;83.01;99683.53;10570298;28;20058;-76
2021/11/01 11:14:33;;;;;;;5.68;1.90;;;;;;;11.55;80.59;99692.84;10555376;28;20101;-78
2021/11/01 11:19:58;;;;;;;6.05;2.92;;;;;;;11.76;79.94;99686.63;10541466;28;20257;-77
2021/11/01 11:51:57;;;;;;;7.30;2.35;;;;;;;11.37;82.63;99689.53;10582130;28;20066;-77
2021/11/01 11:57:04;;;;;;;7.90;1.88;;;;;;;11.28;81.29;99688.72;10581003;28;20044;-76
2021/11/01 12:02:07;;;;;;;;;;;;;;;11.49;80.33;99685.13;10568081;28;20057;-77
2021/11/01 12:07:13;;;;;;;3.40;1.70;;;;;;;11.58;81.04;99683.34;10551766;28;19924;-78
2021/11/01 12:12:35;;;;;;;6.60;2.25;;;;;;;12.02;80.08;99674.31;10541549;28;20111;-77
2021/11/01 12:17:37;;;;;;;4.13;1.90;;;;;;;11.79;78.66;99671.91;10546672;28;20384;-78
2021/11/01 12:22:43;;;;;;;5.03;1.55;;;;;;;11.70;80.38;99682.38;10545003;28;20044;-76
2021/11/01 12:27:56;;;;;;;6.75;1.70;;;;;;;11.70;79.81;99678.91;10547898;28;20126;-77
2021/11/01 12:32:58;;;;;;;3.55;1.85;;;;;;;11.54;80.25;99670.41;10551611;28;20161;-78
2021/11/01 12:38:07;;;;;;;6.85;1.88;;;;;;;11.70;82.62;99682.38;10563762;28;20051;-79
2021/11/01 12:58:44;;;;;;;8.73;1.70;;;;;;;11.85;78.65;99679.66;10565873;28;20047;-81
2021/11/01 13:03:56;;;;;;;7.70;2.47;;;;;;;11.66;80.66;99673.75;10564425;28;20474;-81
2021/11/01 13:09:03;;;;;;;6.07;2.30;;;;;;;11.75;80.68;99674.56;10544116;28;20059;-81
2021/11/01 13:14:28;;;;;;;5.72;2.05;;;;;;;11.74;79.50;99657.28;10548076;28;20056;-82
2021/11/01 13:19:32;;;;;;;6.28;2.22;;;;;;;11.61;79.28;99662.56;10547333;28;20040;-82
2021/11/01 13:24:47;;;;;;;5.70;1.88;;;;;;;12.01;77.33;99658.78;10552406;28;20478;-81
2021/11/01 13:35:15;;;;;;;4.70;1.85;;;;;;;11.85;78.77;99658.06;10557344;28;20043;-82
2021/11/01 13:40:17;;;;;;;7.93;2.05;;;;;;;11.74;78.03;99660.75;10547805;28;20051;-80
2021/11/01 13:45:20;;;;;;;5.57;1.65;;;;;;;11.89;78.65;99663.22;10540850;28;20549;-81
2021/11/01 13:50:28;;;;;;;5.15;2.00;;;;;;;11.83;77.77;99665.00;10535873;28;20051;-82
2021/11/01 13:55:46;;;;;;;5.53;2.38;;;;;;;11.84;77.98;99672.75;10534594;28;20060;-82
2021/11/01 14:11:30;;;;;;;5.80;2.13;;;;;;;11.49;80.76;99685.97;10549546;28;20074;-81
2021/11/01 14:16:36;;;;;;;6.97;1.92;;;;;;;11.45;79.96;99681.69;10534304;28;20051;-82
2021/11/01 14:27:18;;;;;;;5.75;2.05;;;;;;;11.60;78.38;99689.34;10542788;28;20048;-82
2021/11/01 15:09:38;;;;;;;5.95;2.17;;;;;;;11.17;80.19;99680.16;10572287;28;20055;-82
2021/11/01 15:35:21;;;;;;;6.35;2.20;;;;;;;10.76;83.03;99681.28;10549230;28;20048;-81
2021/11/01 16:22:40;;;;;;;6.47;2.55;;;;;;;10.28;87.78;99663.38;10558614;28;20055;-82
2021/11/01 16:27:47;;;;;;;4.55;1.83;;;;;;;10.31;87.68;99670.25;10550729;28;20044;-82
2021/11/01 16:32:54;;;;;;;4.85;1.98;;;;;;;10.30;nan;99665.94;10557952;28;20441;-81
2021/11/01 16:42:58;;;;;;;4.78;2.33;;;;;;;10.12;91.27;99730.56;10566322;28;20052;-81
2021/11/01 16:48:00;;;;;;;1.63;0.90;;;;;;;8.82;100.00;99741.59;10574753;28;20445;-77
2021/11/01 16:53:02;;;;;;;1.58;1.00;;;;;;;8.64;100.00;99752.69;10579058;28;20147;-80
2021/11/01 16:58:15;;;;;;;3.17;1.10;;;;;;;8.76;100.00;99741.59;10563993;28;20044;-80
2021/11/01 17:25:08;;;;;;;4.75;1.65;;;;;;;8.48;100.00;99750.91;10542161;28;20055;-78
2021/11/01 17:35:34;;;;;;;19.42;9.73;;;;;;;8.37;100.00;99742.25;10536378;28;20052;-79
2021/11/01 18:45:08;;;;;;;5.45;2.80;;;;;;;8.16;100.00;99794.44;10556689;28;20078;-78
2021/11/01 18:55:32;;;;;;;2.63;2.20;;;;;;;8.03;100.00;99795.22;10568690;28;20460;-78
2021/11/01 19:00:42;;;;;;;5.32;3.25;;;;;;;7.86;100.00;99795.06;10565447;28;20387;-77
2021/11/01 20:05:38;;;;;;;8.00;7.20;;;;;;;6.96;100.00;99812.13;10572941;28;20074;-77
2021/11/01 20:10:26;;;;;;;8.55;6.15;;;;;;;6.93;100.00;99814.69;10555202;28;20052;-76
2021/11/01 21:25:19;;;;;;;10.27;6.50;;;;;;;6.64;100.00;99807.44;10563624;28;20324;-77
2021/11/01 21:30:21;;;;;;;14.90;9.38;;;;;;;6.47;100.00;99803.78;10554673;28;20052;-76
2021/11/01 21:35:28;;;;;;;12.82;7.15;;;;;;;6.54;100.00;99803.03;10559747;28;20063;-76
2021/11/01 21:40:30;;;;;;;10.32;6.13;;;;;;;6.68;100.00;99791.22;10563891;28;20560;-76
2021/11/01 21:45:31;;;;;;;9.13;7.18;;;;;;;6.56;100.00;99798.75;10571918;28;20483;-76
2021/11/01 21:50:33;;;;;;;10.20;5.95;;;;;;;6.67;100.00;99802.34;10540975;28;20514;-76
2021/11/01 21:55:36;;;;;;;9.45;7.50;;;;;;;6.76;100.00;99796.47;10571096;28;20068;-76
2021/11/01 22:21:35;;;;;;;9.77;5.25;;;;;;;6.35;100.00;99782.22;10564200;28;20058;-73
2021/11/01 22:42:47;;;;;;;6.40;4.95;;;;;;;6.07;100.00;99773.25;10567646;28;20054;-73
2021/11/01 22:48:13;;;;;;;8.98;4.63;;;;;;;6.05;100.00;99772.31;10572077;28;20052;-73
2021/11/01 22:58:40;;;;;;;7.18;5.47;;;;;;;5.95;100.00;99775.59;10580466;28;20043;-73
2021/11/01 23:35:50;;;;;;;17.55;5.97;;;;;;;5.89;100.00;99779.72;10570459;28;20059;-74
2021/11/01 23:40:52;;;;;;;11.10;6.50;;;;;;;5.81;100.00;99777.91;10555762;28;20047;-74
2021/11/01 23:45:54;;;;;;;8.90;5.82;;;;;;;5.88;100.00;99778.88;10568431;28;20063;-74
2021/11/01 23:50:56;;;;;;;9.50;5.97;;;;;;;5.95;100.00;99779.84;10566682;28;20131;-73
2021/11/01 23:56:11;;;;;;;14.15;6.40;;;;;;;5.95;100.00;99774.72;10557799;28;20063;-73
